createdAt,value
2022-08-26T00:00:06.038Z,12.00
2022-08-26T00:02:53.608Z,12.00
2022-08-26T00:05:21.316Z,18.20
2022-08-26T00:07:51.471Z,12.90
2022-08-26T00:10:20.900Z,13.20
2022-08-26T00:12:51.593Z,14.20
2022-08-26T00:15:22.033Z,13.10
2022-08-26T00:17:51.934Z,16.90
2022-08-26T00:20:27.186Z,17.70
2022-08-26T00:22:55.537Z,12.00
2022-08-26T00:25:24.583Z,12.90
2022-08-26T00:27:52.992Z,17.50
2022-08-26T00:30:26.694Z,13.40
2022-08-26T00:32:56.062Z,12.60
2022-08-26T00:35:26.007Z,17.00
2022-08-26T00:37:57.192Z,12.50
2022-08-26T00:40:38.126Z,14.50
2022-08-26T00:43:09.614Z,14.20
2022-08-26T00:46:12.385Z,12.30
2022-08-26T00:48:46.964Z,13.50
2022-08-26T00:51:23.122Z,14.70
2022-08-26T00:53:57.144Z,17.70
2022-08-26T00:56:33.248Z,13.00
2022-08-26T00:59:08.701Z,13.80
2022-08-26T01:01:38.683Z,14.10
2022-08-26T01:04:06.438Z,12.00
2022-08-26T01:06:34.564Z,12.60
2022-08-26T01:09:03.184Z,13.50
2022-08-26T01:11:32.632Z,13.30
2022-08-26T01:14:04.576Z,12.80
2022-08-26T01:16:36.013Z,16.00
2022-08-26T01:19:21.837Z,12.20
2022-08-26T01:22:00.143Z,10.50
2022-08-26T01:24:30.839Z,15.40
2022-08-26T01:27:09.077Z,13.60
2022-08-26T01:29:40.956Z,14.10
2022-08-26T01:32:15.833Z,13.40
2022-08-26T01:34:43.610Z,11.70
2022-08-26T01:37:17.012Z,10.80
2022-08-26T01:39:49.867Z,13.20
2022-08-26T01:42:20.873Z,14.20
2022-08-26T01:45:18.368Z,15.40
2022-08-26T01:47:56.853Z,14.00
2022-08-26T01:50:30.704Z,14.00
2022-08-26T01:53:06.922Z,11.40
2022-08-26T01:55:39.267Z,13.70
2022-08-26T01:58:17.655Z,12.30
2022-08-26T02:00:48.033Z,12.50
2022-08-26T02:03:22.275Z,12.60
2022-08-26T02:06:09.214Z,10.40
2022-08-26T02:08:44.642Z,10.90
2022-08-26T02:11:13.596Z,13.60
2022-08-26T02:13:47.189Z,14.00
2022-08-26T02:16:23.889Z,12.40
2022-08-26T02:18:53.793Z,11.80
2022-08-26T02:21:22.048Z,11.50
2022-08-26T02:23:52.947Z,11.30
2022-08-26T02:26:26.930Z,13.60
2022-08-26T02:29:24.820Z,9.80
2022-08-26T02:31:55.728Z,10.30
2022-08-26T02:34:32.046Z,10.80
2022-08-26T02:37:07.504Z,12.90
2022-08-26T02:39:38.204Z,20.60
2022-08-26T02:42:06.708Z,10.60
2022-08-26T02:44:34.901Z,11.30
2022-08-26T02:47:03.687Z,11.90
2022-08-26T02:49:32.950Z,12.80
2022-08-26T02:52:01.885Z,15.00
2022-08-26T02:54:29.828Z,12.40
2022-08-26T02:56:57.656Z,15.80
2022-08-26T02:59:25.307Z,12.00
2022-08-26T03:01:56.002Z,16.10
2022-08-26T03:04:25.688Z,11.80
2022-08-26T03:06:55.462Z,15.90
2022-08-26T03:09:24.736Z,13.70
2022-08-26T03:11:52.813Z,13.60
2022-08-26T03:14:20.949Z,12.90
2022-08-26T03:16:50.954Z,14.30
2022-08-26T03:19:18.900Z,13.00
2022-08-26T03:21:47.353Z,12.80
2022-08-26T03:24:15.805Z,15.20
2022-08-26T03:26:52.708Z,11.60
2022-08-26T03:29:41.152Z,11.60
2022-08-26T03:32:09.693Z,14.20
2022-08-26T03:34:38.700Z,10.80
2022-08-26T03:37:06.517Z,11.60
2022-08-26T03:39:35.008Z,13.90
2022-08-26T03:42:02.722Z,14.40
2022-08-26T03:44:30.435Z,16.50
2022-08-26T03:46:58.179Z,12.80
2022-08-26T03:49:26.432Z,12.30
2022-08-26T03:51:56.788Z,14.90
2022-08-26T03:54:24.537Z,14.00
2022-08-26T03:56:52.477Z,15.70
2022-08-26T03:59:20.976Z,15.00
2022-08-26T04:01:48.735Z,14.00
2022-08-26T04:04:17.077Z,13.80
2022-08-26T04:06:45.299Z,13.80
2022-08-26T04:09:19.009Z,16.20
2022-08-26T04:11:50.581Z,13.20
2022-08-26T04:14:23.684Z,12.60
2022-08-26T04:16:53.927Z,14.80
2022-08-26T04:19:25.592Z,13.30
2022-08-26T04:21:54.555Z,15.00
2022-08-26T04:24:26.864Z,14.00
2022-08-26T04:26:56.587Z,16.90
2022-08-26T04:29:26.847Z,15.90
2022-08-26T04:31:55.907Z,15.00
2022-08-26T04:34:28.566Z,17.40
2022-08-26T04:36:57.973Z,18.90
2022-08-26T04:39:27.633Z,20.80
2022-08-26T04:41:55.888Z,21.00
2022-08-26T04:44:29.268Z,17.90
2022-08-26T04:46:58.440Z,17.70
2022-08-26T04:49:27.670Z,20.90
2022-08-26T04:51:55.497Z,23.20
2022-08-26T04:54:23.609Z,17.90
2022-08-26T04:56:54.149Z,17.10
2022-08-26T04:59:21.836Z,19.30
2022-08-26T05:01:53.209Z,26.40
2022-08-26T05:04:21.317Z,24.30
2022-08-26T05:06:50.376Z,22.10
2022-08-26T05:09:18.723Z,24.40
2022-08-26T05:11:48.498Z,21.60
2022-08-26T05:14:23.349Z,23.60
2022-08-26T05:16:52.619Z,16.70
2022-08-26T05:19:21.185Z,17.30
2022-08-26T05:21:49.381Z,16.60
2022-08-26T05:24:18.239Z,14.20
2022-08-26T05:26:47.223Z,11.30
2022-08-26T05:29:16.990Z,13.50
2022-08-26T05:31:44.786Z,10.90
2022-08-26T05:34:12.919Z,15.80
2022-08-26T05:36:41.278Z,11.30
2022-08-26T05:39:10.559Z,10.90
2022-08-26T05:41:41.934Z,12.00
2022-08-26T05:44:14.583Z,11.50
2022-08-26T05:46:44.716Z,11.50
2022-08-26T05:49:16.007Z,12.20
2022-08-26T05:51:47.578Z,11.60
2022-08-26T05:54:22.011Z,12.40
2022-08-26T05:56:52.268Z,8.70
2022-08-26T05:59:24.040Z,9.10
2022-08-26T06:01:55.194Z,13.20
2022-08-26T06:04:27.944Z,10.10
2022-08-26T06:06:58.600Z,10.90
2022-08-26T06:09:27.405Z,12.70
2022-08-26T06:11:56.065Z,9.40
2022-08-26T06:14:23.704Z,12.00
2022-08-26T06:16:51.807Z,12.00
2022-08-26T06:19:20.068Z,10.90
2022-08-26T06:21:54.852Z,14.40
2022-08-26T06:24:41.599Z,10.00
2022-08-26T06:27:13.556Z,10.70
2022-08-26T06:29:41.905Z,11.50
2022-08-26T06:32:09.551Z,9.30
2022-08-26T06:34:37.449Z,15.80
2022-08-26T06:37:06.357Z,11.20
2022-08-26T06:39:34.606Z,11.80
2022-08-26T06:42:03.413Z,12.80
2022-08-26T06:44:34.522Z,12.40
2022-08-26T06:47:02.162Z,11.80
2022-08-26T06:49:29.873Z,9.70
2022-08-26T06:51:58.638Z,10.10
2022-08-26T06:54:30.297Z,9.80
2022-08-26T06:56:58.945Z,11.70
2022-08-26T06:59:26.765Z,9.00
2022-08-26T07:01:55.221Z,10.90
2022-08-26T07:04:24.681Z,9.90
2022-08-26T07:06:54.067Z,15.90
2022-08-26T07:09:25.656Z,9.80
2022-08-26T07:11:56.379Z,8.30
2022-08-26T07:14:25.220Z,14.40
2022-08-26T07:16:54.891Z,11.40
2022-08-26T07:19:30.052Z,12.60
2022-08-26T07:22:03.530Z,11.90
2022-08-26T07:24:35.430Z,8.50
2022-08-26T07:27:10.173Z,12.70
2022-08-26T07:29:40.509Z,9.50
2022-08-26T07:32:10.082Z,8.10
2022-08-26T07:34:39.193Z,10.70
2022-08-26T07:37:08.730Z,10.70
2022-08-26T07:39:38.384Z,11.00
2022-08-26T07:42:13.357Z,10.30
2022-08-26T07:44:43.846Z,8.10
2022-08-26T07:47:24.752Z,8.90
2022-08-26T07:49:57.815Z,11.10
2022-08-26T07:52:29.274Z,11.00
2022-08-26T07:55:02.331Z,10.20
2022-08-26T07:57:30.813Z,9.90
2022-08-26T07:59:59.636Z,10.40
2022-08-26T08:02:29.219Z,11.30
2022-08-26T08:04:58.827Z,6.80
2022-08-26T08:07:44.415Z,8.60
2022-08-26T08:10:19.297Z,11.20
2022-08-26T08:12:50.103Z,8.20
2022-08-26T08:15:24.196Z,6.20
2022-08-26T08:17:53.071Z,16.80
2022-08-26T08:20:23.019Z,14.10
2022-08-26T08:22:52.524Z,9.00
2022-08-26T08:25:23.046Z,8.60
2022-08-26T08:27:51.094Z,7.70
2022-08-26T08:30:23.130Z,11.00
2022-08-26T08:32:52.323Z,12.70
2022-08-26T08:35:22.480Z,6.80
2022-08-26T08:37:54.350Z,9.40
2022-08-26T08:40:26.071Z,10.20
2022-08-26T08:43:07.101Z,12.20
2022-08-26T08:45:51.000Z,9.10
2022-08-26T08:48:29.560Z,7.00
2022-08-26T08:51:27.243Z,12.40
2022-08-26T08:53:56.563Z,9.90
2022-08-26T08:56:33.621Z,7.30
2022-08-26T08:59:16.677Z,13.30
2022-08-26T09:02:14.755Z,12.60
2022-08-26T09:05:34.224Z,11.50
2022-08-26T09:08:16.214Z,11.60
2022-08-26T09:10:55.202Z,10.70
2022-08-26T09:13:27.237Z,9.60
2022-08-26T09:16:13.942Z,10.10
2022-08-26T09:19:31.480Z,11.30
2022-08-26T09:22:03.671Z,9.50
2022-08-26T09:24:42.159Z,8.90
2022-08-26T09:27:46.696Z,8.60
2022-08-26T09:30:31.441Z,8.90
2022-08-26T09:33:10.231Z,9.80
2022-08-26T09:35:47.143Z,8.10
2022-08-26T09:38:33.944Z,11.70
2022-08-26T09:41:08.898Z,11.60
2022-08-26T09:43:36.925Z,12.60
2022-08-26T09:46:21.384Z,10.00
2022-08-26T09:48:53.046Z,10.20
2022-08-26T09:51:23.696Z,9.30
2022-08-26T09:54:01.189Z,11.20
2022-08-26T09:56:47.504Z,9.50
2022-08-26T09:59:29.897Z,10.60
2022-08-26T10:02:18.772Z,8.80
2022-08-26T10:04:56.441Z,9.50
2022-08-26T10:07:58.485Z,8.90
2022-08-26T10:10:33.069Z,6.20
2022-08-26T10:13:11.799Z,8.90
2022-08-26T10:16:15.534Z,12.50
2022-08-26T10:19:00.698Z,7.40
2022-08-26T10:21:54.054Z,8.20
2022-08-26T10:24:44.123Z,9.30
2022-08-26T10:27:34.496Z,5.50
2022-08-26T10:30:12.030Z,7.40
2022-08-26T10:32:50.433Z,11.70
2022-08-26T10:35:19.953Z,9.00
2022-08-26T10:37:58.557Z,8.00
2022-08-26T10:40:53.411Z,8.10
2022-08-26T10:43:31.332Z,5.50
2022-08-26T10:46:17.210Z,4.60
2022-08-26T10:48:59.921Z,8.70
2022-08-26T10:51:45.880Z,5.40
2022-08-26T10:54:44.186Z,6.00
2022-08-26T10:57:54.857Z,8.30
2022-08-26T11:00:51.446Z,7.00
2022-08-26T11:03:58.712Z,9.30
2022-08-26T11:06:31.400Z,10.20
2022-08-26T11:09:03.846Z,7.00
2022-08-26T11:11:40.694Z,10.90
2022-08-26T11:14:28.734Z,10.10
2022-08-26T11:16:59.765Z,11.30
2022-08-26T11:19:45.344Z,9.00
2022-08-26T11:22:31.186Z,8.00
2022-08-26T11:24:58.934Z,8.20
2022-08-26T11:27:27.103Z,9.60
2022-08-26T11:30:13.147Z,9.20
2022-08-26T11:32:41.129Z,7.70
2022-08-26T11:35:19.284Z,6.60
2022-08-26T11:38:01.535Z,9.00
2022-08-26T11:40:38.600Z,7.40
2022-08-26T11:43:14.948Z,11.40
2022-08-26T11:45:59.866Z,10.10
2022-08-26T11:48:28.302Z,7.40
2022-08-26T11:51:23.053Z,9.90
2022-08-26T11:53:51.559Z,8.90
2022-08-26T11:56:33.179Z,6.50
2022-08-26T11:59:09.908Z,7.00
2022-08-26T12:01:43.338Z,11.40
2022-08-26T12:04:25.091Z,6.90
2022-08-26T12:06:53.466Z,8.80
2022-08-26T12:09:29.944Z,12.50
2022-08-26T12:12:18.025Z,13.50
2022-08-26T12:14:45.635Z,8.80
2022-08-26T12:17:26.495Z,9.00
2022-08-26T12:19:54.140Z,10.10
2022-08-26T12:22:29.163Z,8.50
2022-08-26T12:25:08.833Z,8.20
2022-08-26T12:27:45.457Z,8.70
2022-08-26T12:30:23.694Z,8.70
2022-08-26T12:33:13.333Z,10.80
2022-08-26T12:35:56.514Z,10.90
2022-08-26T12:38:27.510Z,8.80
2022-08-26T12:40:57.139Z,9.00
2022-08-26T12:43:44.483Z,9.20
2022-08-26T12:46:28.459Z,11.00
2022-08-26T12:49:01.094Z,9.70
2022-08-26T12:51:32.943Z,11.80
2022-08-26T12:54:06.637Z,9.80
2022-08-26T12:56:39.048Z,8.00
2022-08-26T12:59:25.011Z,10.20
2022-08-26T13:01:54.084Z,7.50
2022-08-26T13:04:43.889Z,6.10
2022-08-26T13:07:27.361Z,8.10
2022-08-26T13:09:58.280Z,8.60
2022-08-26T13:12:38.152Z,8.60
2022-08-26T13:15:06.953Z,7.40
2022-08-26T13:17:35.982Z,11.30
2022-08-26T13:20:04.643Z,9.70
2022-08-26T13:22:33.829Z,9.90
2022-08-26T13:25:01.611Z,6.90
2022-08-26T13:27:29.586Z,9.40
2022-08-26T13:29:57.870Z,6.20
2022-08-26T13:32:27.535Z,6.40
2022-08-26T13:34:57.484Z,7.70
2022-08-26T13:37:34.940Z,6.50
2022-08-26T13:40:07.066Z,10.00
2022-08-26T13:42:34.938Z,10.10
2022-08-26T13:45:04.214Z,8.20
2022-08-26T13:47:32.558Z,8.30
2022-08-26T13:50:00.295Z,11.00
2022-08-26T13:52:30.494Z,7.30
2022-08-26T13:55:00.638Z,12.20
2022-08-26T13:57:30.265Z,6.70
2022-08-26T13:59:59.419Z,8.50
2022-08-26T14:02:28.481Z,8.60
2022-08-26T14:04:56.394Z,9.40
2022-08-26T14:07:24.291Z,6.90
2022-08-26T14:09:52.335Z,7.80
2022-08-26T14:12:19.977Z,7.00
2022-08-26T14:14:48.155Z,7.00
2022-08-26T14:17:21.932Z,8.80
2022-08-26T14:19:50.718Z,6.60
2022-08-26T14:22:22.165Z,9.20
2022-08-26T14:24:50.628Z,8.30
2022-08-26T14:27:18.460Z,13.70
2022-08-26T14:29:46.078Z,7.60
2022-08-26T14:32:27.086Z,8.20
2022-08-26T14:34:56.096Z,10.20
2022-08-26T14:37:24.466Z,7.00
2022-08-26T14:39:52.482Z,7.90
2022-08-26T14:42:25.862Z,6.70
2022-08-26T14:45:05.167Z,5.90
2022-08-26T14:47:33.198Z,6.50
2022-08-26T14:50:01.008Z,9.40
2022-08-26T14:52:29.669Z,5.70
2022-08-26T14:54:57.322Z,7.00
2022-08-26T14:57:25.008Z,11.40
2022-08-26T14:59:53.167Z,8.10
2022-08-26T15:02:33.629Z,7.20
2022-08-26T15:05:03.987Z,9.40
2022-08-26T15:07:31.935Z,4.50
2022-08-26T15:09:59.734Z,5.10
2022-08-26T15:12:27.881Z,6.20
2022-08-26T15:14:55.525Z,9.10
2022-08-26T15:17:23.482Z,5.20
2022-08-26T15:19:51.619Z,6.40
2022-08-26T15:22:19.182Z,7.60
2022-08-26T15:24:46.896Z,6.00
2022-08-26T15:27:19.234Z,9.80
2022-08-26T15:29:46.869Z,7.60
2022-08-26T15:32:14.660Z,8.80
2022-08-26T15:34:42.301Z,9.10
2022-08-26T15:37:10.056Z,6.70
2022-08-26T15:39:37.777Z,7.50
2022-08-26T15:42:05.769Z,9.60
2022-08-26T15:44:34.248Z,6.30
2022-08-26T15:47:01.947Z,7.40
2022-08-26T15:49:29.541Z,13.20
2022-08-26T15:51:57.213Z,7.80
2022-08-26T15:54:24.886Z,8.10
2022-08-26T15:56:53.181Z,8.90
2022-08-26T15:59:22.676Z,8.30
2022-08-26T16:01:51.991Z,6.70
2022-08-26T16:04:20.584Z,7.20
2022-08-26T16:06:51.512Z,10.00
2022-08-26T16:09:26.827Z,9.70
2022-08-26T16:11:58.511Z,8.90
2022-08-26T16:14:26.858Z,8.30
2022-08-26T16:16:54.848Z,8.30
2022-08-26T16:19:22.753Z,7.20
2022-08-26T16:21:51.499Z,5.70
2022-08-26T16:24:28.386Z,7.50
2022-08-26T16:26:58.277Z,9.60
2022-08-26T16:29:27.163Z,7.40
2022-08-26T16:31:54.962Z,8.10
2022-08-26T16:34:23.002Z,9.40
2022-08-26T16:36:50.654Z,9.60
2022-08-26T16:39:18.334Z,8.20
2022-08-26T16:41:46.120Z,9.10
2022-08-26T16:44:13.789Z,9.10
2022-08-26T16:46:41.765Z,10.80
2022-08-26T16:49:09.335Z,8.80
2022-08-26T16:51:38.161Z,10.90
2022-08-26T16:54:08.822Z,11.10
2022-08-26T16:56:37.947Z,9.50
2022-08-26T16:59:10.497Z,7.90
2022-08-26T17:01:38.319Z,11.10
2022-08-26T17:04:06.119Z,8.30
2022-08-26T17:06:34.329Z,9.40
2022-08-26T17:09:02.255Z,7.60
2022-08-26T17:11:30.606Z,10.10
2022-08-26T17:13:58.225Z,7.80
2022-08-26T17:16:27.482Z,8.00
2022-08-26T17:18:57.948Z,8.40
2022-08-26T17:21:28.012Z,7.60
2022-08-26T17:23:56.453Z,10.70
2022-08-26T17:26:24.113Z,8.40
2022-08-26T17:28:51.736Z,8.20
2022-08-26T17:31:21.051Z,8.90
2022-08-26T17:33:53.437Z,9.40
2022-08-26T17:36:28.179Z,13.00
2022-08-26T17:38:58.062Z,9.70
2022-08-26T17:41:27.012Z,8.90
2022-08-26T17:43:55.122Z,9.20
2022-08-26T17:46:23.605Z,11.60
2022-08-26T17:48:51.641Z,8.90
2022-08-26T17:51:20.479Z,9.20
2022-08-26T17:53:48.728Z,8.80
2022-08-26T17:56:20.659Z,12.20
2022-08-26T17:58:52.949Z,11.10
2022-08-26T18:01:23.538Z,11.00
2022-08-26T18:03:56.699Z,9.40
2022-08-26T18:06:27.279Z,19.10
2022-08-26T18:08:54.947Z,13.20
2022-08-26T18:11:24.409Z,12.50
2022-08-26T18:13:52.079Z,11.30
2022-08-26T18:16:20.548Z,11.80
2022-08-26T18:18:53.407Z,11.80
2022-08-26T18:21:26.142Z,10.40
2022-08-26T18:23:55.255Z,9.30
2022-08-26T18:26:34.940Z,11.20
2022-08-26T18:29:04.562Z,9.50
2022-08-26T18:31:33.483Z,14.80
2022-08-26T18:34:03.091Z,12.10
2022-08-26T18:36:36.816Z,11.50
2022-08-26T18:39:07.935Z,9.70
2022-08-26T18:41:43.805Z,10.90
2022-08-26T18:44:15.328Z,15.50
2022-08-26T18:46:46.229Z,11.10
2022-08-26T18:49:16.982Z,15.20
2022-08-26T18:51:46.711Z,16.40
2022-08-26T18:54:15.157Z,16.00
2022-08-26T18:56:43.799Z,13.30
2022-08-26T18:59:13.989Z,14.20
2022-08-26T19:01:42.849Z,15.50
2022-08-26T19:04:14.121Z,15.40
2022-08-26T19:06:48.368Z,13.30
2022-08-26T19:09:18.809Z,13.40
2022-08-26T19:11:49.653Z,15.60
2022-08-26T19:14:18.681Z,16.60
2022-08-26T19:16:49.136Z,13.60
2022-08-26T19:19:17.252Z,13.20
2022-08-26T19:21:47.044Z,14.20
2022-08-26T19:24:17.653Z,16.00
2022-08-26T19:26:49.823Z,19.00
2022-08-26T19:29:24.157Z,18.70
2022-08-26T19:31:51.799Z,21.20
2022-08-26T19:34:20.797Z,18.70
2022-08-26T19:36:49.842Z,17.70
2022-08-26T19:39:17.838Z,19.50
2022-08-26T19:41:45.765Z,20.00
2022-08-26T19:44:38.286Z,24.20
2022-08-26T19:47:09.673Z,21.80
2022-08-26T19:49:37.929Z,17.70
2022-08-26T19:52:06.056Z,12.70
2022-08-26T19:54:35.220Z,17.30
2022-08-26T19:57:04.075Z,17.20
2022-08-26T19:59:33.122Z,12.60
2022-08-26T20:02:01.938Z,10.10
2022-08-26T20:04:32.425Z,12.10
2022-08-26T20:07:01.957Z,14.70
2022-08-26T20:09:34.015Z,18.00
2022-08-26T20:12:05.113Z,17.40
2022-08-26T20:14:35.202Z,15.40
2022-08-26T20:17:04.829Z,15.20
2022-08-26T20:19:52.025Z,15.70
2022-08-26T20:22:21.285Z,14.90
2022-08-26T20:24:50.013Z,12.00
2022-08-26T20:27:18.104Z,12.50
2022-08-26T20:29:45.776Z,12.50
2022-08-26T20:32:13.533Z,12.50
2022-08-26T20:34:41.245Z,13.10
2022-08-26T20:37:08.868Z,12.50
2022-08-26T20:39:36.761Z,14.30
2022-08-26T20:42:06.604Z,11.90
2022-08-26T20:44:54.243Z,13.00
2022-08-26T20:47:23.217Z,10.30
2022-08-26T20:49:52.244Z,15.90
2022-08-26T20:52:20.532Z,13.00
2022-08-26T20:54:48.605Z,13.50
2022-08-26T20:57:16.351Z,13.50
2022-08-26T20:59:43.918Z,12.50
2022-08-26T21:02:11.504Z,16.30
2022-08-26T21:04:39.247Z,11.60
2022-08-26T21:07:06.951Z,10.70
2022-08-26T21:09:34.543Z,10.10
2022-08-26T21:12:02.542Z,10.90
2022-08-26T21:14:30.080Z,14.40
2022-08-26T21:16:58.463Z,12.90
2022-08-26T21:19:26.745Z,14.60
2022-08-26T21:21:54.457Z,17.00
2022-08-26T21:24:22.101Z,14.90
2022-08-26T21:26:49.876Z,13.10
2022-08-26T21:29:17.594Z,9.50
2022-08-26T21:31:46.723Z,9.70
2022-08-26T21:34:18.765Z,10.80
2022-08-26T21:36:47.987Z,12.80
2022-08-26T21:39:16.785Z,10.30
2022-08-26T21:41:45.093Z,11.80
2022-08-26T21:44:15.919Z,14.30
2022-08-26T21:46:45.877Z,8.60
2022-08-26T21:49:18.453Z,10.70
2022-08-26T21:51:48.607Z,9.40
2022-08-26T21:54:18.138Z,10.50
2022-08-26T21:56:47.541Z,9.90
2022-08-26T21:59:18.427Z,15.10
2022-08-26T22:01:47.332Z,11.60
2022-08-26T22:04:17.164Z,14.00
2022-08-26T22:06:49.825Z,11.30
2022-08-26T22:09:24.401Z,13.70
2022-08-26T22:11:54.227Z,13.70
2022-08-26T22:14:25.375Z,14.10
2022-08-26T22:16:57.680Z,10.70
2022-08-26T22:19:26.356Z,13.20
2022-08-26T22:21:55.649Z,11.90
2022-08-26T22:24:27.096Z,10.90
2022-08-26T22:26:55.527Z,10.40
2022-08-26T22:29:25.130Z,9.70
2022-08-26T22:31:53.660Z,12.00
2022-08-26T22:34:23.125Z,12.10
2022-08-26T22:36:51.408Z,12.30
2022-08-26T22:39:24.576Z,12.60
2022-08-26T22:41:53.952Z,10.30
2022-08-26T22:44:22.204Z,13.00
2022-08-26T22:46:54.255Z,10.70
2022-08-26T22:49:23.327Z,10.50
2022-08-26T22:51:51.092Z,9.80
2022-08-26T22:54:19.374Z,10.90
2022-08-26T22:56:47.094Z,9.90
2022-08-26T22:59:16.236Z,10.50
2022-08-26T23:01:44.421Z,10.80
2022-08-26T23:04:12.141Z,9.10
2022-08-26T23:06:47.437Z,10.60
2022-08-26T23:09:18.681Z,10.30
2022-08-26T23:11:48.661Z,9.70
2022-08-26T23:14:18.906Z,9.30
2022-08-26T23:16:47.756Z,10.80
2022-08-26T23:19:22.421Z,9.30
2022-08-26T23:21:51.022Z,11.10
2022-08-26T23:24:18.760Z,10.70
2022-08-26T23:26:48.114Z,9.20
2022-08-26T23:29:16.681Z,9.20
2022-08-26T23:31:45.455Z,8.90
2022-08-26T23:34:32.009Z,11.40
2022-08-26T23:37:01.021Z,10.60
2022-08-26T23:39:32.133Z,10.10
2022-08-26T23:42:01.965Z,10.50
2022-08-26T23:44:30.750Z,9.60
2022-08-26T23:46:59.404Z,9.80
2022-08-26T23:49:28.764Z,10.90
2022-08-26T23:52:15.536Z,10.50
2022-08-26T23:54:43.644Z,8.90
2022-08-26T23:57:11.356Z,8.50
2022-08-26T23:59:39.100Z,10.50
